sensor_id;sensor_type;location;lat;lon;timestamp;temperature;humidity
21481;DHT22;10902;48.158;8.634;2022-09-28T00:02:14;7.40;99.90
21481;DHT22;10902;48.158;8.634;2022-09-28T00:04:40;7.40;99.90
21481;DHT22;10902;48.158;8.634;2022-09-28T00:07:05;7.40;99.90
21481;DHT22;10902;48.158;8.634;2022-09-28T00:09:31;7.30;99.90
21481;DHT22;10902;48.158;8.634;2022-09-28T00:11:56;7.30;99.90
21481;DHT22;10902;48.158;8.634;2022-09-28T00:14:22;7.30;99.90
21481;DHT22;10902;48.158;8.634;2022-09-28T00:16:48;7.30;99.90
21481;DHT22;10902;48.158;8.634;2022-09-28T00:19:14;7.30;99.90
21481;DHT22;10902;48.158;8.634;2022-09-28T00:21:40;7.40;99.90
21481;DHT22;10902;48.158;8.634;2022-09-28T00:24:10;7.30;99.90
21481;DHT22;10902;48.158;8.634;2022-09-28T00:27:01;7.30;99.90
21481;DHT22;10902;48.158;8.634;2022-09-28T00:31:56;7.40;99.90
21481;DHT22;10902;48.158;8.634;2022-09-28T00:34:25;7.40;99.90
21481;DHT22;10902;48.158;8.634;2022-09-28T00:36:51;7.50;99.90
21481;DHT22;10902;48.158;8.634;2022-09-28T00:39:17;7.50;99.90
21481;DHT22;10902;48.158;8.634;2022-09-28T00:41:44;7.40;99.90
21481;DHT22;10902;48.158;8.634;2022-09-28T00:44:39;7.40;99.90
21481;DHT22;10902;48.158;8.634;2022-09-28T00:47:26;7.50;99.90
21481;DHT22;10902;48.158;8.634;2022-09-28T00:50:02;7.50;99.90
21481;DHT22;10902;48.158;8.634;2022-09-28T00:52:44;7.50;99.90
21481;DHT22;10902;48.158;8.634;2022-09-28T00:55:16;7.60;99.90
21481;DHT22;10902;48.158;8.634;2022-09-28T00:57:46;7.60;99.90
21481;DHT22;10902;48.158;8.634;2022-09-28T01:00:13;7.60;99.90
21481;DHT22;10902;48.158;8.634;2022-09-28T01:02:39;7.60;99.90
21481;DHT22;10902;48.158;8.634;2022-09-28T01:05:06;7.60;99.90
21481;DHT22;10902;48.158;8.634;2022-09-28T01:07:34;7.60;99.90
21481;DHT22;10902;48.158;8.634;2022-09-28T01:10:00;7.60;99.90
21481;DHT22;10902;48.158;8.634;2022-09-28T01:12:26;7.70;99.90
21481;DHT22;10902;48.158;8.634;2022-09-28T01:14:53;7.70;99.90
21481;DHT22;10902;48.158;8.634;2022-09-28T01:22:59;7.60;99.90
21481;DHT22;10902;48.158;8.634;2022-09-28T01:28:11;7.60;99.90
21481;DHT22;10902;48.158;8.634;2022-09-28T01:33:41;7.50;99.90
21481;DHT22;10902;48.158;8.634;2022-09-28T01:36:12;7.50;99.90
21481;DHT22;10902;48.158;8.634;2022-09-28T01:38:45;7.60;99.90
21481;DHT22;10902;48.158;8.634;2022-09-28T01:41:12;7.50;99.90
21481;DHT22;10902;48.158;8.634;2022-09-28T01:43:41;7.50;99.90
21481;DHT22;10902;48.158;8.634;2022-09-28T01:46:20;7.60;99.90
21481;DHT22;10902;48.158;8.634;2022-09-28T01:48:55;7.60;99.90
21481;DHT22;10902;48.158;8.634;2022-09-28T01:51:33;7.60;99.90
21481;DHT22;10902;48.158;8.634;2022-09-28T01:54:06;7.60;99.90
21481;DHT22;10902;48.158;8.634;2022-09-28T01:56:59;7.60;99.90
21481;DHT22;10902;48.158;8.634;2022-09-28T01:59:26;7.60;99.90
21481;DHT22;10902;48.158;8.634;2022-09-28T02:02:18;7.60;99.90
21481;DHT22;10902;48.158;8.634;2022-09-28T02:04:54;7.50;99.90
21481;DHT22;10902;48.158;8.634;2022-09-28T02:08:20;7.60;99.90
21481;DHT22;10902;48.158;8.634;2022-09-28T02:10:27;7.60;99.90
21481;DHT22;10902;48.158;8.634;2022-09-28T02:12:58;7.60;99.90
21481;DHT22;10902;48.158;8.634;2022-09-28T02:15:36;7.60;99.90
21481;DHT22;10902;48.158;8.634;2022-09-28T02:18:04;7.60;99.90
21481;DHT22;10902;48.158;8.634;2022-09-28T02:20:31;7.70;99.90
21481;DHT22;10902;48.158;8.634;2022-09-28T02:22:59;7.70;99.90
21481;DHT22;10902;48.158;8.634;2022-09-28T02:25:49;7.70;99.90
21481;DHT22;10902;48.158;8.634;2022-09-28T02:28:16;7.70;99.90
21481;DHT22;10902;48.158;8.634;2022-09-28T02:30:43;7.60;99.90
21481;DHT22;10902;48.158;8.634;2022-09-28T02:33:21;7.60;99.90
21481;DHT22;10902;48.158;8.634;2022-09-28T02:35:47;7.60;99.90
21481;DHT22;10902;48.158;8.634;2022-09-28T02:38:14;7.60;99.90
21481;DHT22;10902;48.158;8.634;2022-09-28T02:40:44;7.60;99.90
21481;DHT22;10902;48.158;8.634;2022-09-28T02:43:15;7.60;99.90
21481;DHT22;10902;48.158;8.634;2022-09-28T02:45:46;7.60;99.90
21481;DHT22;10902;48.158;8.634;2022-09-28T02:53:42;7.60;99.90
21481;DHT22;10902;48.158;8.634;2022-09-28T02:59:34;7.50;99.90
21481;DHT22;10902;48.158;8.634;2022-09-28T03:07:22;7.50;99.90
21481;DHT22;10902;48.158;8.634;2022-09-28T03:10:12;7.50;99.90
21481;DHT22;10902;48.158;8.634;2022-09-28T03:12:43;7.50;99.90
21481;DHT22;10902;48.158;8.634;2022-09-28T03:15:19;7.50;99.90
21481;DHT22;10902;48.158;8.634;2022-09-28T03:17:46;7.50;99.90
21481;DHT22;10902;48.158;8.634;2022-09-28T03:20:12;7.50;99.90
21481;DHT22;10902;48.158;8.634;2022-09-28T03:22:37;7.50;99.90
21481;DHT22;10902;48.158;8.634;2022-09-28T03:25:04;7.50;99.90
21481;DHT22;10902;48.158;8.634;2022-09-28T03:27:30;7.40;99.90
21481;DHT22;10902;48.158;8.634;2022-09-28T03:29:56;7.40;99.90
21481;DHT22;10902;48.158;8.634;2022-09-28T03:32:21;7.50;99.90
21481;DHT22;10902;48.158;8.634;2022-09-28T03:34:47;7.40;99.90
21481;DHT22;10902;48.158;8.634;2022-09-28T03:37:12;7.40;99.90
21481;DHT22;10902;48.158;8.634;2022-09-28T03:39:38;7.50;99.90
21481;DHT22;10902;48.158;8.634;2022-09-28T03:42:04;7.40;99.90
21481;DHT22;10902;48.158;8.634;2022-09-28T03:44:29;7.50;99.90
21481;DHT22;10902;48.158;8.634;2022-09-28T03:46:55;7.40;99.90
21481;DHT22;10902;48.158;8.634;2022-09-28T03:49:20;7.40;99.90
21481;DHT22;10902;48.158;8.634;2022-09-28T03:51:46;7.40;99.90
21481;DHT22;10902;48.158;8.634;2022-09-28T03:54:12;7.40;99.90
21481;DHT22;10902;48.158;8.634;2022-09-28T03:56:38;7.50;99.90
21481;DHT22;10902;48.158;8.634;2022-09-28T03:59:04;7.50;99.90
21481;DHT22;10902;48.158;8.634;2022-09-28T04:01:30;7.40;99.90
21481;DHT22;10902;48.158;8.634;2022-09-28T04:03:55;7.50;99.90
21481;DHT22;10902;48.158;8.634;2022-09-28T04:06:22;7.50;99.90
21481;DHT22;10902;48.158;8.634;2022-09-28T04:08:48;7.50;99.90
21481;DHT22;10902;48.158;8.634;2022-09-28T04:11:13;7.50;99.90
21481;DHT22;10902;48.158;8.634;2022-09-28T04:13:39;7.50;99.90
21481;DHT22;10902;48.158;8.634;2022-09-28T04:16:05;7.50;99.90
21481;DHT22;10902;48.158;8.634;2022-09-28T04:18:31;7.50;99.90
21481;DHT22;10902;48.158;8.634;2022-09-28T04:21:08;7.50;99.90
21481;DHT22;10902;48.158;8.634;2022-09-28T04:23:36;7.60;99.90
21481;DHT22;10902;48.158;8.634;2022-09-28T04:26:03;7.60;99.90
21481;DHT22;10902;48.158;8.634;2022-09-28T04:28:29;7.60;99.90
21481;DHT22;10902;48.158;8.634;2022-09-28T04:31:16;7.60;99.90
21481;DHT22;10902;48.158;8.634;2022-09-28T04:33:42;7.60;99.90
21481;DHT22;10902;48.158;8.634;2022-09-28T04:36:08;7.60;99.90
21481;DHT22;10902;48.158;8.634;2022-09-28T04:38:35;7.60;99.90
21481;DHT22;10902;48.158;8.634;2022-09-28T04:41:01;7.60;99.90
21481;DHT22;10902;48.158;8.634;2022-09-28T04:43:27;7.60;99.90
21481;DHT22;10902;48.158;8.634;2022-09-28T04:45:57;7.60;99.90
21481;DHT22;10902;48.158;8.634;2022-09-28T04:48:23;7.60;99.90
21481;DHT22;10902;48.158;8.634;2022-09-28T04:50:56;7.60;99.90
21481;DHT22;10902;48.158;8.634;2022-09-28T04:53:23;7.60;99.90
21481;DHT22;10902;48.158;8.634;2022-09-28T04:58:24;7.60;99.90
21481;DHT22;10902;48.158;8.634;2022-09-28T05:00:49;7.60;99.90
21481;DHT22;10902;48.158;8.634;2022-09-28T05:03:19;7.60;99.90
21481;DHT22;10902;48.158;8.634;2022-09-28T05:05:46;7.60;99.90
21481;DHT22;10902;48.158;8.634;2022-09-28T05:08:12;7.60;99.90
21481;DHT22;10902;48.158;8.634;2022-09-28T05:10:38;7.60;99.90
21481;DHT22;10902;48.158;8.634;2022-09-28T05:13:07;7.60;99.90
21481;DHT22;10902;48.158;8.634;2022-09-28T05:15:34;7.60;99.90
21481;DHT22;10902;48.158;8.634;2022-09-28T05:18:00;7.60;99.90
21481;DHT22;10902;48.158;8.634;2022-09-28T05:20:25;7.60;99.90
21481;DHT22;10902;48.158;8.634;2022-09-28T05:22:51;7.60;99.90
21481;DHT22;10902;48.158;8.634;2022-09-28T05:25:17;7.70;99.90
21481;DHT22;10902;48.158;8.634;2022-09-28T05:27:43;7.60;99.90
21481;DHT22;10902;48.158;8.634;2022-09-28T05:30:10;7.70;99.90
21481;DHT22;10902;48.158;8.634;2022-09-28T05:32:42;7.70;99.90
21481;DHT22;10902;48.158;8.634;2022-09-28T05:35:09;7.70;99.90
21481;DHT22;10902;48.158;8.634;2022-09-28T05:37:38;7.70;99.90
21481;DHT22;10902;48.158;8.634;2022-09-28T05:40:06;7.70;99.90
21481;DHT22;10902;48.158;8.634;2022-09-28T05:42:32;7.70;99.90
21481;DHT22;10902;48.158;8.634;2022-09-28T05:44:57;7.60;99.90
21481;DHT22;10902;48.158;8.634;2022-09-28T05:47:24;7.70;99.90
21481;DHT22;10902;48.158;8.634;2022-09-28T05:49:50;7.70;99.90
21481;DHT22;10902;48.158;8.634;2022-09-28T05:52:17;7.70;99.90
21481;DHT22;10902;48.158;8.634;2022-09-28T05:54:42;7.70;99.90
21481;DHT22;10902;48.158;8.634;2022-09-28T05:57:08;7.70;99.90
21481;DHT22;10902;48.158;8.634;2022-09-28T05:59:34;7.60;99.90
21481;DHT22;10902;48.158;8.634;2022-09-28T06:02:00;7.70;99.90
21481;DHT22;10902;48.158;8.634;2022-09-28T06:04:26;7.70;99.90
21481;DHT22;10902;48.158;8.634;2022-09-28T06:06:53;7.70;99.90
21481;DHT22;10902;48.158;8.634;2022-09-28T06:09:18;7.80;99.90
21481;DHT22;10902;48.158;8.634;2022-09-28T06:11:44;7.80;99.90
21481;DHT22;10902;48.158;8.634;2022-09-28T06:14:09;7.80;99.90
21481;DHT22;10902;48.158;8.634;2022-09-28T06:16:38;7.80;99.90
21481;DHT22;10902;48.158;8.634;2022-09-28T06:19:03;7.80;99.90
21481;DHT22;10902;48.158;8.634;2022-09-28T06:21:29;7.70;99.90
21481;DHT22;10902;48.158;8.634;2022-09-28T06:23:55;7.90;99.90
21481;DHT22;10902;48.158;8.634;2022-09-28T06:26:20;7.90;99.90
21481;DHT22;10902;48.158;8.634;2022-09-28T06:28:46;7.90;99.90
21481;DHT22;10902;48.158;8.634;2022-09-28T06:31:11;7.80;99.90
21481;DHT22;10902;48.158;8.634;2022-09-28T06:33:37;7.90;99.90
21481;DHT22;10902;48.158;8.634;2022-09-28T06:36:03;7.90;99.90
21481;DHT22;10902;48.158;8.634;2022-09-28T06:38:29;7.90;99.90
21481;DHT22;10902;48.158;8.634;2022-09-28T06:40:56;7.90;99.90
21481;DHT22;10902;48.158;8.634;2022-09-28T06:43:22;7.90;99.90
21481;DHT22;10902;48.158;8.634;2022-09-28T06:45:51;7.90;99.90
21481;DHT22;10902;48.158;8.634;2022-09-28T06:48:17;7.90;99.90
21481;DHT22;10902;48.158;8.634;2022-09-28T06:50:43;7.80;99.90
21481;DHT22;10902;48.158;8.634;2022-09-28T06:53:13;7.80;99.90
21481;DHT22;10902;48.158;8.634;2022-09-28T06:55:44;7.80;99.90
21481;DHT22;10902;48.158;8.634;2022-09-28T06:58:18;7.80;99.90
21481;DHT22;10902;48.158;8.634;2022-09-28T07:00:44;7.80;99.90
21481;DHT22;10902;48.158;8.634;2022-09-28T07:03:13;7.90;99.90
21481;DHT22;10902;48.158;8.634;2022-09-28T07:05:43;7.90;99.90
21481;DHT22;10902;48.158;8.634;2022-09-28T07:08:10;7.80;99.90
21481;DHT22;10902;48.158;8.634;2022-09-28T07:10:43;7.80;99.90
21481;DHT22;10902;48.158;8.634;2022-09-28T07:13:09;7.80;99.90
21481;DHT22;10902;48.158;8.634;2022-09-28T07:15:35;7.80;99.90
21481;DHT22;10902;48.158;8.634;2022-09-28T07:18:03;7.80;99.90
21481;DHT22;10902;48.158;8.634;2022-09-28T07:20:30;7.80;99.90
21481;DHT22;10902;48.158;8.634;2022-09-28T07:22:59;7.80;99.90
21481;DHT22;10902;48.158;8.634;2022-09-28T07:25:25;7.80;99.90
21481;DHT22;10902;48.158;8.634;2022-09-28T07:27:56;7.80;99.90
21481;DHT22;10902;48.158;8.634;2022-09-28T07:30:23;7.90;99.90
21481;DHT22;10902;48.158;8.634;2022-09-28T07:32:51;7.90;99.90
21481;DHT22;10902;48.158;8.634;2022-09-28T07:35:17;7.90;99.90
21481;DHT22;10902;48.158;8.634;2022-09-28T07:37:42;7.90;99.90
21481;DHT22;10902;48.158;8.634;2022-09-28T07:40:08;8.00;99.90
21481;DHT22;10902;48.158;8.634;2022-09-28T07:42:53;8.00;99.90
21481;DHT22;10902;48.158;8.634;2022-09-28T07:45:18;8.10;99.90
21481;DHT22;10902;48.158;8.634;2022-09-28T07:47:54;8.10;99.90
21481;DHT22;10902;48.158;8.634;2022-09-28T07:50:20;8.30;99.90
21481;DHT22;10902;48.158;8.634;2022-09-28T07:52:46;8.30;99.90
21481;DHT22;10902;48.158;8.634;2022-09-28T07:55:12;8.30;99.90
21481;DHT22;10902;48.158;8.634;2022-09-28T07:57:37;8.30;99.90
21481;DHT22;10902;48.158;8.634;2022-09-28T08:00:04;8.50;99.90
21481;DHT22;10902;48.158;8.634;2022-09-28T08:02:32;8.80;99.90
21481;DHT22;10902;48.158;8.634;2022-09-28T08:04:59;8.90;99.90
21481;DHT22;10902;48.158;8.634;2022-09-28T08:07:24;8.90;99.90
21481;DHT22;10902;48.158;8.634;2022-09-28T08:09:50;8.90;99.90
21481;DHT22;10902;48.158;8.634;2022-09-28T08:12:16;8.90;99.90
21481;DHT22;10902;48.158;8.634;2022-09-28T08:14:44;9.00;99.90
21481;DHT22;10902;48.158;8.634;2022-09-28T08:17:10;9.00;99.90
21481;DHT22;10902;48.158;8.634;2022-09-28T08:19:35;8.90;99.90
21481;DHT22;10902;48.158;8.634;2022-09-28T08:22:19;8.80;99.90
21481;DHT22;10902;48.158;8.634;2022-09-28T08:24:46;9.00;99.90
21481;DHT22;10902;48.158;8.634;2022-09-28T08:27:13;9.00;99.90
21481;DHT22;10902;48.158;8.634;2022-09-28T08:29:39;8.90;99.90
21481;DHT22;10902;48.158;8.634;2022-09-28T08:32:06;8.90;99.90
21481;DHT22;10902;48.158;8.634;2022-09-28T08:34:36;8.70;99.90
21481;DHT22;10902;48.158;8.634;2022-09-28T08:37:03;8.70;99.90
21481;DHT22;10902;48.158;8.634;2022-09-28T08:39:28;8.80;99.90
21481;DHT22;10902;48.158;8.634;2022-09-28T08:44:45;8.80;99.90
21481;DHT22;10902;48.158;8.634;2022-09-28T08:47:26;8.90;99.90
21481;DHT22;10902;48.158;8.634;2022-09-28T08:50:16;8.90;99.90
21481;DHT22;10902;48.158;8.634;2022-09-28T08:52:48;9.10;99.90
21481;DHT22;10902;48.158;8.634;2022-09-28T08:55:23;9.10;99.90
21481;DHT22;10902;48.158;8.634;2022-09-28T08:57:56;9.20;99.90
21481;DHT22;10902;48.158;8.634;2022-09-28T09:00:44;9.20;99.90
21481;DHT22;10902;48.158;8.634;2022-09-28T09:03:15;9.20;99.90
21481;DHT22;10902;48.158;8.634;2022-09-28T09:22:51;8.80;99.90
21481;DHT22;10902;48.158;8.634;2022-09-28T09:25:25;9.00;99.90
21481;DHT22;10902;48.158;8.634;2022-09-28T09:28:06;9.00;99.90
21481;DHT22;10902;48.158;8.634;2022-09-28T09:36:11;9.50;99.90
21481;DHT22;10902;48.158;8.634;2022-09-28T09:39:05;9.80;99.90
21481;DHT22;10902;48.158;8.634;2022-09-28T09:48:19;8.50;99.90
21481;DHT22;10902;48.158;8.634;2022-09-28T09:50:52;8.00;99.90
21481;DHT22;10902;48.158;8.634;2022-09-28T09:53:36;7.70;99.90
21481;DHT22;10902;48.158;8.634;2022-09-28T09:56:45;7.50;99.90
21481;DHT22;10902;48.158;8.634;2022-09-28T09:59:16;7.50;99.90
21481;DHT22;10902;48.158;8.634;2022-09-28T10:01:43;7.60;99.90
21481;DHT22;10902;48.158;8.634;2022-09-28T10:04:23;7.50;99.90
21481;DHT22;10902;48.158;8.634;2022-09-28T10:06:55;7.70;99.90
21481;DHT22;10902;48.158;8.634;2022-09-28T10:09:41;7.70;99.90
21481;DHT22;10902;48.158;8.634;2022-09-28T10:12:08;7.80;99.90
21481;DHT22;10902;48.158;8.634;2022-09-28T10:14:36;7.80;99.90
21481;DHT22;10902;48.158;8.634;2022-09-28T10:17:02;7.90;99.90
21481;DHT22;10902;48.158;8.634;2022-09-28T10:19:33;8.20;99.90
21481;DHT22;10902;48.158;8.634;2022-09-28T10:22:02;8.30;99.90
21481;DHT22;10902;48.158;8.634;2022-09-28T10:24:33;8.20;99.90
21481;DHT22;10902;48.158;8.634;2022-09-28T10:27:30;8.20;99.90
21481;DHT22;10902;48.158;8.634;2022-09-28T10:32:37;8.30;99.90
21481;DHT22;10902;48.158;8.634;2022-09-28T10:37:50;8.40;99.90
21481;DHT22;10902;48.158;8.634;2022-09-28T10:40:28;8.60;99.90
21481;DHT22;10902;48.158;8.634;2022-09-28T10:43:00;8.60;99.90
21481;DHT22;10902;48.158;8.634;2022-09-28T10:45:34;8.60;99.90
21481;DHT22;10902;48.158;8.634;2022-09-28T10:48:04;8.70;99.90
21481;DHT22;10902;48.158;8.634;2022-09-28T10:50:31;8.60;99.90
21481;DHT22;10902;48.158;8.634;2022-09-28T10:53:20;8.60;99.90
21481;DHT22;10902;48.158;8.634;2022-09-28T10:58:36;8.70;99.90
21481;DHT22;10902;48.158;8.634;2022-09-28T11:01:18;8.70;99.90
21481;DHT22;10902;48.158;8.634;2022-09-28T11:04:02;8.60;99.90
21481;DHT22;10902;48.158;8.634;2022-09-28T11:06:36;8.30;99.90
21481;DHT22;10902;48.158;8.634;2022-09-28T11:09:06;8.30;99.90
21481;DHT22;10902;48.158;8.634;2022-09-28T11:11:41;8.10;99.90
21481;DHT22;10902;48.158;8.634;2022-09-28T11:14:32;8.20;99.90
21481;DHT22;10902;48.158;8.634;2022-09-28T11:17:25;8.20;99.90
21481;DHT22;10902;48.158;8.634;2022-09-28T11:19:51;8.30;99.90
21481;DHT22;10902;48.158;8.634;2022-09-28T11:32:51;8.80;99.90
21481;DHT22;10902;48.158;8.634;2022-09-28T11:35:36;8.70;99.90
21481;DHT22;10902;48.158;8.634;2022-09-28T11:38:17;8.70;99.90
21481;DHT22;10902;48.158;8.634;2022-09-28T11:44:03;8.40;99.90
21481;DHT22;10902;48.158;8.634;2022-09-28T11:49:42;8.50;99.90
21481;DHT22;10902;48.158;8.634;2022-09-28T11:52:17;8.60;99.90
21481;DHT22;10902;48.158;8.634;2022-09-28T11:54:51;8.50;99.90
21481;DHT22;10902;48.158;8.634;2022-09-28T11:57:23;8.60;99.90
21481;DHT22;10902;48.158;8.634;2022-09-28T12:00:11;8.80;99.90
21481;DHT22;10902;48.158;8.634;2022-09-28T12:02:44;9.00;99.90
21481;DHT22;10902;48.158;8.634;2022-09-28T12:05:20;9.00;99.90
21481;DHT22;10902;48.158;8.634;2022-09-28T12:07:50;9.00;99.90
21481;DHT22;10902;48.158;8.634;2022-09-28T12:10:54;9.10;99.90
21481;DHT22;10902;48.158;8.634;2022-09-28T12:13:33;9.10;99.90
21481;DHT22;10902;48.158;8.634;2022-09-28T12:21:36;9.20;99.90
21481;DHT22;10902;48.158;8.634;2022-09-28T12:24:17;9.20;99.90
21481;DHT22;10902;48.158;8.634;2022-09-28T12:27:19;9.20;99.90
21481;DHT22;10902;48.158;8.634;2022-09-28T12:30:19;9.30;99.90
21481;DHT22;10902;48.158;8.634;2022-09-28T12:38:27;9.10;99.90
21481;DHT22;10902;48.158;8.634;2022-09-28T12:47:24;9.00;99.90
21481;DHT22;10902;48.158;8.634;2022-09-28T13:01:03;8.60;99.90
21481;DHT22;10902;48.158;8.634;2022-09-28T13:17:50;7.70;99.90
21481;DHT22;10902;48.158;8.634;2022-09-28T13:26:46;7.60;99.90
21481;DHT22;10902;48.158;8.634;2022-09-28T13:29:38;7.50;99.90
21481;DHT22;10902;48.158;8.634;2022-09-28T13:32:12;7.50;99.90
21481;DHT22;10902;48.158;8.634;2022-09-28T13:34:38;7.40;99.90
21481;DHT22;10902;48.158;8.634;2022-09-28T13:42:35;7.40;99.90
21481;DHT22;10902;48.158;8.634;2022-09-28T13:45:01;7.50;99.90
21481;DHT22;10902;48.158;8.634;2022-09-28T13:58:49;7.80;99.90
21481;DHT22;10902;48.158;8.634;2022-09-28T14:01:52;7.80;99.90
21481;DHT22;10902;48.158;8.634;2022-09-28T14:04:51;7.80;99.90
21481;DHT22;10902;48.158;8.634;2022-09-28T14:07:14;7.80;99.90
21481;DHT22;10902;48.158;8.634;2022-09-28T14:09:48;7.80;99.90
21481;DHT22;10902;48.158;8.634;2022-09-28T14:14:58;7.80;99.90
21481;DHT22;10902;48.158;8.634;2022-09-28T14:19:53;7.70;99.90
21481;DHT22;10902;48.158;8.634;2022-09-28T14:22:36;7.80;99.90
21481;DHT22;10902;48.158;8.634;2022-09-28T14:25:31;7.80;99.90
21481;DHT22;10902;48.158;8.634;2022-09-28T14:33:26;7.80;99.90
21481;DHT22;10902;48.158;8.634;2022-09-28T14:35:55;8.00;99.90
21481;DHT22;10902;48.158;8.634;2022-09-28T14:38:27;8.00;99.90
21481;DHT22;10902;48.158;8.634;2022-09-28T14:59:21;9.30;99.90
21481;DHT22;10902;48.158;8.634;2022-09-28T15:02:04;9.20;99.90
21481;DHT22;10902;48.158;8.634;2022-09-28T15:04:33;9.40;99.90
21481;DHT22;10902;48.158;8.634;2022-09-28T15:07:01;9.40;99.90
21481;DHT22;10902;48.158;8.634;2022-09-28T15:09:35;9.10;99.90
21481;DHT22;10902;48.158;8.634;2022-09-28T15:12:02;8.60;99.90
21481;DHT22;10902;48.158;8.634;2022-09-28T15:14:30;8.40;99.90
21481;DHT22;10902;48.158;8.634;2022-09-28T15:16:58;8.50;99.90
21481;DHT22;10902;48.158;8.634;2022-09-28T15:22:17;8.60;99.90
21481;DHT22;10902;48.158;8.634;2022-09-28T15:24:53;8.60;99.90
21481;DHT22;10902;48.158;8.634;2022-09-28T15:27:20;8.50;99.90
21481;DHT22;10902;48.158;8.634;2022-09-28T15:30:26;8.50;99.90
21481;DHT22;10902;48.158;8.634;2022-09-28T15:32:53;8.60;99.90
21481;DHT22;10902;48.158;8.634;2022-09-28T15:35:22;8.50;99.90
21481;DHT22;10902;48.158;8.634;2022-09-28T15:37:49;8.50;99.90
21481;DHT22;10902;48.158;8.634;2022-09-28T15:40:38;8.50;99.90
21481;DHT22;10902;48.158;8.634;2022-09-28T15:43:25;8.40;99.90
21481;DHT22;10902;48.158;8.634;2022-09-28T15:46:15;8.30;99.90
21481;DHT22;10902;48.158;8.634;2022-09-28T15:48:58;8.20;99.90
21481;DHT22;10902;48.158;8.634;2022-09-28T15:51:24;8.20;99.90
21481;DHT22;10902;48.158;8.634;2022-09-28T15:56:26;8.10;99.90
21481;DHT22;10902;48.158;8.634;2022-09-28T16:01:38;7.90;99.90
21481;DHT22;10902;48.158;8.634;2022-09-28T16:04:33;7.90;99.90
21481;DHT22;10902;48.158;8.634;2022-09-28T16:13:15;7.80;99.90
21481;DHT22;10902;48.158;8.634;2022-09-28T16:15:42;7.90;99.90
21481;DHT22;10902;48.158;8.634;2022-09-28T16:18:19;7.90;99.90
21481;DHT22;10902;48.158;8.634;2022-09-28T16:20:49;7.90;99.90
21481;DHT22;10902;48.158;8.634;2022-09-28T16:28:26;7.70;99.90
21481;DHT22;10902;48.158;8.634;2022-09-28T16:33:50;7.60;99.90
21481;DHT22;10902;48.158;8.634;2022-09-28T16:36:19;7.60;99.90
21481;DHT22;10902;48.158;8.634;2022-09-28T16:38:46;7.50;99.90
21481;DHT22;10902;48.158;8.634;2022-09-28T16:41:14;7.40;99.90
21481;DHT22;10902;48.158;8.634;2022-09-28T16:43:44;7.30;99.90
21481;DHT22;10902;48.158;8.634;2022-09-28T16:46:13;7.30;99.90
21481;DHT22;10902;48.158;8.634;2022-09-28T16:48:49;7.30;99.90
21481;DHT22;10902;48.158;8.634;2022-09-28T16:51:20;7.30;99.90
21481;DHT22;10902;48.158;8.634;2022-09-28T16:53:46;7.20;99.90
21481;DHT22;10902;48.158;8.634;2022-09-28T16:56:31;7.30;99.90
21481;DHT22;10902;48.158;8.634;2022-09-28T16:58:57;7.20;99.90
21481;DHT22;10902;48.158;8.634;2022-09-28T17:01:23;7.20;99.90
21481;DHT22;10902;48.158;8.634;2022-09-28T17:03:49;7.20;99.90
21481;DHT22;10902;48.158;8.634;2022-09-28T17:06:16;7.20;99.90
21481;DHT22;10902;48.158;8.634;2022-09-28T17:08:43;7.20;99.90
21481;DHT22;10902;48.158;8.634;2022-09-28T17:11:15;7.20;99.90
21481;DHT22;10902;48.158;8.634;2022-09-28T17:13:41;7.20;99.90
21481;DHT22;10902;48.158;8.634;2022-09-28T17:16:19;7.20;99.90
21481;DHT22;10902;48.158;8.634;2022-09-28T17:18:46;7.10;99.90
21481;DHT22;10902;48.158;8.634;2022-09-28T17:21:15;7.10;99.90
21481;DHT22;10902;48.158;8.634;2022-09-28T17:23:46;7.00;99.90
21481;DHT22;10902;48.158;8.634;2022-09-28T17:26:26;7.00;99.90
21481;DHT22;10902;48.158;8.634;2022-09-28T17:28:55;6.90;99.90
21481;DHT22;10902;48.158;8.634;2022-09-28T17:31:20;6.90;99.90
21481;DHT22;10902;48.158;8.634;2022-09-28T17:33:46;6.90;99.90
21481;DHT22;10902;48.158;8.634;2022-09-28T17:36:15;6.80;99.90
21481;DHT22;10902;48.158;8.634;2022-09-28T17:38:41;6.80;99.90
21481;DHT22;10902;48.158;8.634;2022-09-28T17:41:18;6.80;99.90
21481;DHT22;10902;48.158;8.634;2022-09-28T17:43:44;6.80;99.90
21481;DHT22;10902;48.158;8.634;2022-09-28T17:46:35;6.90;99.90
21481;DHT22;10902;48.158;8.634;2022-09-28T17:49:04;6.90;99.90
21481;DHT22;10902;48.158;8.634;2022-09-28T17:51:33;6.90;99.90
21481;DHT22;10902;48.158;8.634;2022-09-28T17:53:59;6.90;99.90
21481;DHT22;10902;48.158;8.634;2022-09-28T17:56:29;6.80;99.90
21481;DHT22;10902;48.158;8.634;2022-09-28T17:58:59;6.90;99.90
21481;DHT22;10902;48.158;8.634;2022-09-28T18:01:25;6.90;99.90
21481;DHT22;10902;48.158;8.634;2022-09-28T18:03:54;6.90;99.90
21481;DHT22;10902;48.158;8.634;2022-09-28T18:06:19;6.80;99.90
21481;DHT22;10902;48.158;8.634;2022-09-28T18:08:47;6.80;99.90
21481;DHT22;10902;48.158;8.634;2022-09-28T18:11:12;6.80;99.90
21481;DHT22;10902;48.158;8.634;2022-09-28T18:13:38;6.80;99.90
21481;DHT22;10902;48.158;8.634;2022-09-28T18:16:05;6.80;99.90
21481;DHT22;10902;48.158;8.634;2022-09-28T18:18:31;6.80;99.90
21481;DHT22;10902;48.158;8.634;2022-09-28T18:21:00;6.80;99.90
21481;DHT22;10902;48.158;8.634;2022-09-28T18:23:26;6.80;99.90
21481;DHT22;10902;48.158;8.634;2022-09-28T18:25:51;6.80;99.90
21481;DHT22;10902;48.158;8.634;2022-09-28T18:28:17;6.90;99.90
21481;DHT22;10902;48.158;8.634;2022-09-28T18:30:44;6.80;99.90
21481;DHT22;10902;48.158;8.634;2022-09-28T18:33:11;6.80;99.90
21481;DHT22;10902;48.158;8.634;2022-09-28T18:35:37;6.70;99.90
21481;DHT22;10902;48.158;8.634;2022-09-28T18:38:04;6.70;99.90
21481;DHT22;10902;48.158;8.634;2022-09-28T18:40:34;6.70;99.90
21481;DHT22;10902;48.158;8.634;2022-09-28T18:43:00;6.60;99.90
21481;DHT22;10902;48.158;8.634;2022-09-28T18:45:26;6.60;99.90
21481;DHT22;10902;48.158;8.634;2022-09-28T18:47:52;6.50;99.90
21481;DHT22;10902;48.158;8.634;2022-09-28T18:50:17;6.50;99.90
21481;DHT22;10902;48.158;8.634;2022-09-28T18:52:43;6.50;99.90
21481;DHT22;10902;48.158;8.634;2022-09-28T18:55:10;6.50;99.90
21481;DHT22;10902;48.158;8.634;2022-09-28T18:57:37;6.40;99.90
21481;DHT22;10902;48.158;8.634;2022-09-28T19:00:05;6.40;99.90
21481;DHT22;10902;48.158;8.634;2022-09-28T19:02:32;6.40;99.90
21481;DHT22;10902;48.158;8.634;2022-09-28T19:04:57;6.40;99.90
21481;DHT22;10902;48.158;8.634;2022-09-28T19:07:23;6.40;99.90
21481;DHT22;10902;48.158;8.634;2022-09-28T19:09:49;6.40;99.90
21481;DHT22;10902;48.158;8.634;2022-09-28T19:12:15;6.40;99.90
21481;DHT22;10902;48.158;8.634;2022-09-28T19:14:41;6.40;99.90
21481;DHT22;10902;48.158;8.634;2022-09-28T19:17:07;6.30;99.90
21481;DHT22;10902;48.158;8.634;2022-09-28T19:19:32;6.30;99.90
21481;DHT22;10902;48.158;8.634;2022-09-28T19:21:58;6.30;99.90
21481;DHT22;10902;48.158;8.634;2022-09-28T19:24:24;6.20;99.90
21481;DHT22;10902;48.158;8.634;2022-09-28T19:26:50;6.20;99.90
21481;DHT22;10902;48.158;8.634;2022-09-28T19:29:18;6.20;99.90
21481;DHT22;10902;48.158;8.634;2022-09-28T19:31:44;6.30;99.90
21481;DHT22;10902;48.158;8.634;2022-09-28T19:34:11;6.20;99.90